首页
METAR-TAF:

METAR-TAF

机场 :

里斯本, 葡萄牙

温贝托·德尔加多机场

纬度: 38-46N, 经度: 009-08W, 海拔: 114米

当前天气观测

该预报发布于30分钟前的14:00 UTC
风速11节,风向北转西北
温度 15°C
湿度 72%
气压 1030 hPa
能见度10公里或以上
散云层高于2000英尺

METAR: LPPT 221400Z 34011KT 9999 SCT020 15/10 Q1030

时间: 14:30 (14:30 UTC)

预报

该预报发布于3小时和30分钟前的11:00 UTC
预报有效从22日的 12点(UTC)到 23日的 18点(UTC)
风速13节,风向北转西北
能见度10公里或以上
多云层高于1500英尺
成为
从 22日的 12点(UTC)到 22日的 15点(UTC)
散云层高于2000英尺
成为
从 22日的 22点(UTC)到 22日的 24点(UTC)
风速8节,风向北转西北
散云层高于1200英尺
短暂存在
从 23日的 03点(UTC)到 23日的 08点(UTC)
多云层高于800英尺
成为
从 23日的 08点(UTC)到 23日的 11点(UTC)
风速10节,风向北转东北
散云层高于2000英尺
成为
从 23日的 15点(UTC)到 23日的 17点(UTC)
风速10节,风向北转西北
能见度10公里或以上
1500米以下无云,无积雨云

TAF: LPPT 221100Z 2212/2318 34013KT 9999 BKN015 BECMG 2212/2215 SCT020 BECMG 2222/2224 34008KT SCT012 TEMPO 2303/2308 BKN008 BECMG 2308/2311 03010KT SCT020 BECMG 2315/2317 34010KT CAVOK

超过4000个机场的气象观测和天气预报(METAR&TAF报告)。

可查询的气象台以黄色和红色小点在地图上表示。

将鼠标移到小点上方,可查看气象台名称。

然后点击查看天气观测和预报。

如需切换地图:点击带黑十字的绿色按钮放大地图;点击带横线的绿色按钮缩小地图;或者点击绿色箭头查看邻近地区的地图。


METAR-TAF: